sensor_id;sensor_type;location;lat;lon;timestamp;P1;durP1;ratioP1;P2;durP2;ratioP2
76903;SDS011;65865;51.698;-0.292;2024-03-23T00:56:14;4.55;;;1.10;;
76903;SDS011;65865;51.698;-0.292;2024-03-23T00:58:42;4.32;;;1.33;;
76903;SDS011;65865;51.698;-0.292;2024-03-23T01:01:09;3.10;;;1.02;;
76903;SDS011;65865;51.698;-0.292;2024-03-23T01:03:36;2.08;;;0.90;;
76903;SDS011;65865;51.698;-0.292;2024-03-23T01:06:02;2.22;;;0.95;;
76903;SDS011;65865;51.698;-0.292;2024-03-23T01:08:31;2.33;;;0.82;;
76903;SDS011;65865;51.698;-0.292;2024-03-23T01:11:00;3.42;;;1.20;;
76903;SDS011;65865;51.698;-0.292;2024-03-23T01:13:28;2.08;;;1.02;;
76903;SDS011;65865;51.698;-0.292;2024-03-23T01:15:55;2.95;;;0.73;;
76903;SDS011;65865;51.698;-0.292;2024-03-23T01:18:23;2.50;;;1.10;;
76903;SDS011;65865;51.698;-0.292;2024-03-23T01:20:51;1.67;;;0.70;;
76903;SDS011;65865;51.698;-0.292;2024-03-23T01:23:17;2.30;;;0.73;;
76903;SDS011;65865;51.698;-0.292;2024-03-23T01:25:51;3.88;;;1.65;;
76903;SDS011;65865;51.698;-0.292;2024-03-23T01:28:22;1.35;;;0.32;;
76903;SDS011;65865;51.698;-0.292;2024-03-23T01:30:49;2.35;;;0.77;;
76903;SDS011;65865;51.698;-0.292;2024-03-23T01:33:18;2.47;;;0.80;;
76903;SDS011;65865;51.698;-0.292;2024-03-23T01:35:44;5.32;;;1.05;;
76903;SDS011;65865;51.698;-0.292;2024-03-23T01:38:17;2.05;;;0.85;;
76903;SDS011;65865;51.698;-0.292;2024-03-23T01:40:46;1.98;;;0.80;;
76903;SDS011;65865;51.698;-0.292;2024-03-23T01:43:15;2.45;;;1.13;;
76903;SDS011;65865;51.698;-0.292;2024-03-23T01:45:42;1.73;;;0.65;;
76903;SDS011;65865;51.698;-0.292;2024-03-23T01:48:10;2.17;;;0.65;;
76903;SDS011;65865;51.698;-0.292;2024-03-23T01:50:37;2.45;;;1.00;;
76903;SDS011;65865;51.698;-0.292;2024-03-23T01:53:04;2.40;;;0.65;;
76903;SDS011;65865;51.698;-0.292;2024-03-23T01:55:32;1.67;;;0.77;;
76903;SDS011;65865;51.698;-0.292;2024-03-23T01:57:58;1.25;;;0.50;;
76903;SDS011;65865;51.698;-0.292;2024-03-23T02:00:26;1.58;;;0.75;;
76903;SDS011;65865;51.698;-0.292;2024-03-23T02:02:55;2.47;;;0.35;;
76903;SDS011;65865;51.698;-0.292;2024-03-23T02:07:51;1.58;;;0.50;;
76903;SDS011;65865;51.698;-0.292;2024-03-23T02:10:17;1.30;;;0.60;;
76903;SDS011;65865;51.698;-0.292;2024-03-23T02:12:43;1.83;;;0.73;;
76903;SDS011;65865;51.698;-0.292;2024-03-23T02:15:10;2.25;;;0.70;;
76903;SDS011;65865;51.698;-0.292;2024-03-23T02:17:36;2.38;;;0.90;;
76903;SDS011;65865;51.698;-0.292;2024-03-23T02:20:03;1.98;;;0.90;;
76903;SDS011;65865;51.698;-0.292;2024-03-23T02:22:37;1.48;;;1.38;;
76903;SDS011;65865;51.698;-0.292;2024-03-23T02:25:04;2.85;;;1.20;;
76903;SDS011;65865;51.698;-0.292;2024-03-23T02:27:30;1.15;;;0.52;;
76903;SDS011;65865;51.698;-0.292;2024-03-23T02:32:27;1.92;;;0.73;;
76903;SDS011;65865;51.698;-0.292;2024-03-23T02:34:55;1.08;;;0.40;;
76903;SDS011;65865;51.698;-0.292;2024-03-23T02:39:49;1.42;;;0.80;;
76903;SDS011;65865;51.698;-0.292;2024-03-23T02:42:15;0.50;;;0.50;;
76903;SDS011;65865;51.698;-0.292;2024-03-23T02:44:43;1.73;;;0.88;;
76903;SDS011;65865;51.698;-0.292;2024-03-23T02:47:09;1.85;;;0.75;;
76903;SDS011;65865;51.698;-0.292;2024-03-23T02:49:36;1.98;;;0.60;;
76903;SDS011;65865;51.698;-0.292;2024-03-23T02:52:02;0.77;;;0.50;;
76903;SDS011;65865;51.698;-0.292;2024-03-23T02:54:36;0.82;;;0.57;;
76903;SDS011;65865;51.698;-0.292;2024-03-23T02:57:04;2.35;;;0.77;;
76903;SDS011;65865;51.698;-0.292;2024-03-23T02:59:30;1.63;;;0.73;;
76903;SDS011;65865;51.698;-0.292;2024-03-23T03:01:56;0.98;;;0.60;;
76903;SDS011;65865;51.698;-0.292;2024-03-23T03:04:31;1.08;;;0.82;;
76903;SDS011;65865;51.698;-0.292;2024-03-23T03:06:58;1.67;;;0.88;;
76903;SDS011;65865;51.698;-0.292;2024-03-23T03:09:24;1.38;;;0.70;;
76903;SDS011;65865;51.698;-0.292;2024-03-23T03:11:51;0.95;;;0.77;;
76903;SDS011;65865;51.698;-0.292;2024-03-23T03:14:17;1.60;;;0.88;;
76903;SDS011;65865;51.698;-0.292;2024-03-23T03:16:44;0.70;;;0.38;;
76903;SDS011;65865;51.698;-0.292;2024-03-23T03:19:11;1.70;;;1.00;;
76903;SDS011;65865;51.698;-0.292;2024-03-23T03:21:37;3.08;;;0.30;;
76903;SDS011;65865;51.698;-0.292;2024-03-23T03:24:13;1.40;;;0.60;;
76903;SDS011;65865;51.698;-0.292;2024-03-23T03:26:39;1.08;;;0.57;;
76903;SDS011;65865;51.698;-0.292;2024-03-23T03:29:13;1.20;;;0.70;;
76903;SDS011;65865;51.698;-0.292;2024-03-23T03:31:40;1.45;;;0.82;;
76903;SDS011;65865;51.698;-0.292;2024-03-23T03:34:08;2.25;;;0.50;;
76903;SDS011;65865;51.698;-0.292;2024-03-23T03:39:01;1.17;;;0.70;;
76903;SDS011;65865;51.698;-0.292;2024-03-23T03:41:34;1.60;;;0.75;;
76903;SDS011;65865;51.698;-0.292;2024-03-23T03:44:02;1.20;;;0.88;;
76903;SDS011;65865;51.698;-0.292;2024-03-23T03:46:28;0.95;;;0.60;;
76903;SDS011;65865;51.698;-0.292;2024-03-23T03:48:54;0.90;;;0.70;;
76903;SDS011;65865;51.698;-0.292;2024-03-23T03:51:20;1.35;;;0.60;;
76903;SDS011;65865;51.698;-0.292;2024-03-23T03:53:46;0.85;;;0.40;;
76903;SDS011;65865;51.698;-0.292;2024-03-23T03:56:13;1.10;;;0.77;;
76903;SDS011;65865;51.698;-0.292;2024-03-23T03:58:40;0.82;;;0.82;;
76903;SDS011;65865;51.698;-0.292;2024-03-23T04:01:08;0.55;;;0.55;;
76903;SDS011;65865;51.698;-0.292;2024-03-23T04:03:35;0.95;;;0.63;;
76903;SDS011;65865;51.698;-0.292;2024-03-23T04:06:01;1.17;;;0.60;;
76903;SDS011;65865;51.698;-0.292;2024-03-23T04:08:30;2.10;;;0.70;;
76903;SDS011;65865;51.698;-0.292;2024-03-23T04:11:00;0.70;;;0.65;;
76903;SDS011;65865;51.698;-0.292;2024-03-23T04:13:29;0.70;;;0.50;;
76903;SDS011;65865;51.698;-0.292;2024-03-23T04:15:57;1.17;;;0.82;;
76903;SDS011;65865;51.698;-0.292;2024-03-23T04:20:49;0.80;;;0.50;;
76903;SDS011;65865;51.698;-0.292;2024-03-23T04:23:17;1.25;;;0.55;;
76903;SDS011;65865;51.698;-0.292;2024-03-23T04:25:44;1.63;;;0.95;;
76903;SDS011;65865;51.698;-0.292;2024-03-23T04:28:10;1.08;;;0.60;;
76903;SDS011;65865;51.698;-0.292;2024-03-23T04:30:43;1.27;;;0.65;;
76903;SDS011;65865;51.698;-0.292;2024-03-23T04:33:09;0.60;;;0.50;;
76903;SDS011;65865;51.698;-0.292;2024-03-23T04:35:39;0.70;;;0.65;;
76903;SDS011;65865;51.698;-0.292;2024-03-23T04:40:37;1.60;;;0.73;;
76903;SDS011;65865;51.698;-0.292;2024-03-23T04:45:34;1.30;;;0.75;;
76903;SDS011;65865;51.698;-0.292;2024-03-23T04:48:01;1.67;;;0.55;;
76903;SDS011;65865;51.698;-0.292;2024-03-23T04:50:29;1.45;;;0.68;;
76903;SDS011;65865;51.698;-0.292;2024-03-23T04:53:02;0.75;;;0.52;;
76903;SDS011;65865;51.698;-0.292;2024-03-23T04:55:29;1.10;;;0.73;;
76903;SDS011;65865;51.698;-0.292;2024-03-23T05:02:59;0.73;;;0.63;;
76903;SDS011;65865;51.698;-0.292;2024-03-23T05:05:25;1.10;;;0.65;;
76903;SDS011;65865;51.698;-0.292;2024-03-23T05:07:53;0.73;;;0.65;;
76903;SDS011;65865;51.698;-0.292;2024-03-23T05:10:20;2.15;;;0.80;;
76903;SDS011;65865;51.698;-0.292;2024-03-23T05:12:48;0.90;;;0.70;;
76903;SDS011;65865;51.698;-0.292;2024-03-23T05:15:16;1.67;;;0.80;;
76903;SDS011;65865;51.698;-0.292;2024-03-23T05:17:44;0.68;;;0.63;;
76903;SDS011;65865;51.698;-0.292;2024-03-23T05:20:10;1.27;;;0.68;;
76903;SDS011;65865;51.698;-0.292;2024-03-23T05:22:39;1.00;;;0.60;;
76903;SDS011;65865;51.698;-0.292;2024-03-23T05:25:12;1.08;;;0.85;;
76903;SDS011;65865;51.698;-0.292;2024-03-23T05:27:38;0.88;;;0.80;;
76903;SDS011;65865;51.698;-0.292;2024-03-23T05:30:04;1.05;;;0.75;;
76903;SDS011;65865;51.698;-0.292;2024-03-23T05:32:37;1.33;;;0.57;;
76903;SDS011;65865;51.698;-0.292;2024-03-23T05:35:06;0.60;;;0.60;;
76903;SDS011;65865;51.698;-0.292;2024-03-23T05:37:33;0.98;;;0.77;;
76903;SDS011;65865;51.698;-0.292;2024-03-23T05:40:01;0.80;;;0.47;;
76903;SDS011;65865;51.698;-0.292;2024-03-23T05:42:29;1.75;;;0.60;;
76903;SDS011;65865;51.698;-0.292;2024-03-23T05:44:55;1.25;;;0.60;;
76903;SDS011;65865;51.698;-0.292;2024-03-23T05:47:29;0.93;;;0.80;;
76903;SDS011;65865;51.698;-0.292;2024-03-23T05:49:55;1.38;;;0.88;;
76903;SDS011;65865;51.698;-0.292;2024-03-23T05:52:21;1.13;;;0.80;;
76903;SDS011;65865;51.698;-0.292;2024-03-23T05:54:47;1.42;;;0.65;;
76903;SDS011;65865;51.698;-0.292;2024-03-23T05:57:13;1.20;;;0.63;;
76903;SDS011;65865;51.698;-0.292;2024-03-23T06:02:09;1.23;;;0.57;;
76903;SDS011;65865;51.698;-0.292;2024-03-23T06:04:36;0.95;;;0.75;;
76903;SDS011;65865;51.698;-0.292;2024-03-23T06:07:03;1.20;;;0.50;;
76903;SDS011;65865;51.698;-0.292;2024-03-23T06:09:32;1.08;;;0.80;;
76903;SDS011;65865;51.698;-0.292;2024-03-23T06:11:58;1.52;;;0.70;;
76903;SDS011;65865;51.698;-0.292;2024-03-23T06:14:25;1.80;;;1.23;;
76903;SDS011;65865;51.698;-0.292;2024-03-23T06:16:52;1.27;;;0.73;;
76903;SDS011;65865;51.698;-0.292;2024-03-23T06:19:18;1.10;;;0.73;;
76903;SDS011;65865;51.698;-0.292;2024-03-23T06:21:45;1.05;;;0.65;;
76903;SDS011;65865;51.698;-0.292;2024-03-23T06:24:11;3.20;;;0.40;;
76903;SDS011;65865;51.698;-0.292;2024-03-23T06:26:39;6.47;;;1.27;;
76903;SDS011;65865;51.698;-0.292;2024-03-23T06:29:09;3.13;;;0.55;;
76903;SDS011;65865;51.698;-0.292;2024-03-23T06:31:35;2.90;;;0.82;;
76903;SDS011;65865;51.698;-0.292;2024-03-23T06:34:01;2.00;;;0.63;;
76903;SDS011;65865;51.698;-0.292;2024-03-23T06:38:56;0.82;;;0.60;;
76903;SDS011;65865;51.698;-0.292;2024-03-23T06:41:23;2.80;;;0.77;;
76903;SDS011;65865;51.698;-0.292;2024-03-23T06:43:51;1.35;;;0.70;;
76903;SDS011;65865;51.698;-0.292;2024-03-23T06:46:17;1.38;;;0.30;;
76903;SDS011;65865;51.698;-0.292;2024-03-23T06:48:44;2.42;;;0.60;;
76903;SDS011;65865;51.698;-0.292;2024-03-23T06:51:11;1.85;;;1.00;;
76903;SDS011;65865;51.698;-0.292;2024-03-23T06:53:39;1.42;;;0.60;;
76903;SDS011;65865;51.698;-0.292;2024-03-23T06:58:34;1.38;;;0.88;;
76903;SDS011;65865;51.698;-0.292;2024-03-23T07:01:02;1.77;;;1.30;;
76903;SDS011;65865;51.698;-0.292;2024-03-23T07:03:33;0.75;;;0.60;;
76903;SDS011;65865;51.698;-0.292;2024-03-23T07:06:02;0.90;;;0.55;;
76903;SDS011;65865;51.698;-0.292;2024-03-23T07:11:01;1.55;;;0.70;;
76903;SDS011;65865;51.698;-0.292;2024-03-23T07:13:28;2.60;;;0.60;;
76903;SDS011;65865;51.698;-0.292;2024-03-23T07:15:55;0.93;;;0.70;;
76903;SDS011;65865;51.698;-0.292;2024-03-23T07:18:22;1.63;;;0.40;;
76903;SDS011;65865;51.698;-0.292;2024-03-23T07:20:54;1.77;;;0.75;;
76903;SDS011;65865;51.698;-0.292;2024-03-23T07:23:24;1.35;;;0.88;;
76903;SDS011;65865;51.698;-0.292;2024-03-23T07:25:57;1.73;;;0.65;;
76903;SDS011;65865;51.698;-0.292;2024-03-23T07:28:24;1.15;;;0.60;;
76903;SDS011;65865;51.698;-0.292;2024-03-23T07:31:04;1.23;;;0.60;;
76903;SDS011;65865;51.698;-0.292;2024-03-23T07:33:48;2.08;;;0.88;;
76903;SDS011;65865;51.698;-0.292;2024-03-23T07:36:15;2.55;;;0.80;;
76903;SDS011;65865;51.698;-0.292;2024-03-23T07:38:51;3.50;;;0.70;;
76903;SDS011;65865;51.698;-0.292;2024-03-23T07:41:48;1.77;;;0.93;;
76903;SDS011;65865;51.698;-0.292;2024-03-23T07:46:44;2.20;;;0.80;;
76903;SDS011;65865;51.698;-0.292;2024-03-23T07:49:13;2.85;;;0.90;;
76903;SDS011;65865;51.698;-0.292;2024-03-23T07:51:41;3.58;;;0.85;;
76903;SDS011;65865;51.698;-0.292;2024-03-23T07:54:08;1.42;;;0.60;;
76903;SDS011;65865;51.698;-0.292;2024-03-23T07:56:35;1.52;;;0.82;;
76903;SDS011;65865;51.698;-0.292;2024-03-23T07:59:03;1.35;;;0.73;;
76903;SDS011;65865;51.698;-0.292;2024-03-23T08:04:00;2.35;;;0.88;;
76903;SDS011;65865;51.698;-0.292;2024-03-23T08:06:27;1.45;;;0.82;;
76903;SDS011;65865;51.698;-0.292;2024-03-23T08:08:56;2.28;;;0.60;;
76903;SDS011;65865;51.698;-0.292;2024-03-23T08:11:27;2.92;;;0.82;;
76903;SDS011;65865;51.698;-0.292;2024-03-23T08:13:57;2.25;;;0.88;;
76903;SDS011;65865;51.698;-0.292;2024-03-23T08:16:23;2.03;;;0.98;;
76903;SDS011;65865;51.698;-0.292;2024-03-23T08:18:56;2.47;;;1.20;;
76903;SDS011;65865;51.698;-0.292;2024-03-23T08:21:24;3.97;;;1.08;;
76903;SDS011;65865;51.698;-0.292;2024-03-23T08:23:53;2.50;;;0.43;;
76903;SDS011;65865;51.698;-0.292;2024-03-23T08:28:47;3.72;;;1.35;;
76903;SDS011;65865;51.698;-0.292;2024-03-23T08:31:13;4.75;;;1.08;;
76903;SDS011;65865;51.698;-0.292;2024-03-23T08:33:53;2.30;;;0.73;;
76903;SDS011;65865;51.698;-0.292;2024-03-23T08:36:21;2.63;;;0.90;;
76903;SDS011;65865;51.698;-0.292;2024-03-23T08:38:53;3.65;;;1.20;;
76903;SDS011;65865;51.698;-0.292;2024-03-23T08:41:20;4.53;;;1.52;;
76903;SDS011;65865;51.698;-0.292;2024-03-23T08:43:46;3.97;;;1.15;;
76903;SDS011;65865;51.698;-0.292;2024-03-23T08:46:15;4.80;;;0.98;;
76903;SDS011;65865;51.698;-0.292;2024-03-23T08:48:44;4.47;;;1.55;;
76903;SDS011;65865;51.698;-0.292;2024-03-23T08:51:13;6.82;;;1.50;;
76903;SDS011;65865;51.698;-0.292;2024-03-23T08:53:43;6.10;;;1.58;;
76903;SDS011;65865;51.698;-0.292;2024-03-23T08:56:17;4.10;;;1.15;;
76903;SDS011;65865;51.698;-0.292;2024-03-23T08:58:46;5.40;;;1.50;;
76903;SDS011;65865;51.698;-0.292;2024-03-23T09:01:12;3.25;;;1.17;;
76903;SDS011;65865;51.698;-0.292;2024-03-23T09:03:40;3.72;;;1.10;;
76903;SDS011;65865;51.698;-0.292;2024-03-23T09:06:07;3.55;;;1.15;;
76903;SDS011;65865;51.698;-0.292;2024-03-23T09:08:40;2.55;;;1.20;;
76903;SDS011;65865;51.698;-0.292;2024-03-23T09:11:07;4.53;;;1.10;;
76903;SDS011;65865;51.698;-0.292;2024-03-23T09:13:35;5.28;;;1.02;;
76903;SDS011;65865;51.698;-0.292;2024-03-23T09:16:13;3.88;;;1.45;;
76903;SDS011;65865;51.698;-0.292;2024-03-23T09:18:42;3.78;;;1.50;;
76903;SDS011;65865;51.698;-0.292;2024-03-23T09:23:44;3.85;;;1.50;;
76903;SDS011;65865;51.698;-0.292;2024-03-23T09:26:16;4.68;;;1.58;;
76903;SDS011;65865;51.698;-0.292;2024-03-23T09:28:43;5.45;;;1.30;;
76903;SDS011;65865;51.698;-0.292;2024-03-23T09:31:09;4.82;;;1.95;;
76903;SDS011;65865;51.698;-0.292;2024-03-23T09:33:40;4.28;;;1.02;;
76903;SDS011;65865;51.698;-0.292;2024-03-23T09:36:24;3.45;;;1.13;;
76903;SDS011;65865;51.698;-0.292;2024-03-23T09:38:51;5.35;;;1.17;;
76903;SDS011;65865;51.698;-0.292;2024-03-23T09:41:26;3.35;;;0.98;;
76903;SDS011;65865;51.698;-0.292;2024-03-23T09:43:55;5.50;;;1.27;;
76903;SDS011;65865;51.698;-0.292;2024-03-23T09:46:26;4.38;;;1.10;;
76903;SDS011;65865;51.698;-0.292;2024-03-23T09:48:53;6.80;;;1.48;;
76903;SDS011;65865;51.698;-0.292;2024-03-23T09:51:22;4.43;;;0.90;;
76903;SDS011;65865;51.698;-0.292;2024-03-23T09:53:49;6.32;;;3.33;;
76903;SDS011;65865;51.698;-0.292;2024-03-23T09:58:46;4.55;;;1.50;;
76903;SDS011;65865;51.698;-0.292;2024-03-23T10:01:16;6.03;;;1.90;;
76903;SDS011;65865;51.698;-0.292;2024-03-23T10:03:43;4.82;;;1.58;;
76903;SDS011;65865;51.698;-0.292;2024-03-23T10:06:16;7.10;;;1.38;;
76903;SDS011;65865;51.698;-0.292;2024-03-23T10:08:47;5.20;;;1.30;;
76903;SDS011;65865;51.698;-0.292;2024-03-23T10:11:14;3.72;;;1.27;;
76903;SDS011;65865;51.698;-0.292;2024-03-23T10:13:41;4.53;;;0.95;;
76903;SDS011;65865;51.698;-0.292;2024-03-23T10:16:10;3.35;;;1.27;;
76903;SDS011;65865;51.698;-0.292;2024-03-23T10:18:39;5.15;;;2.13;;
76903;SDS011;65865;51.698;-0.292;2024-03-23T10:21:11;3.92;;;1.77;;
76903;SDS011;65865;51.698;-0.292;2024-03-23T10:23:41;6.15;;;1.73;;
76903;SDS011;65865;51.698;-0.292;2024-03-23T10:28:53;3.88;;;1.45;;
76903;SDS011;65865;51.698;-0.292;2024-03-23T10:31:21;6.15;;;1.52;;
76903;SDS011;65865;51.698;-0.292;2024-03-23T10:33:49;5.43;;;1.50;;
76903;SDS011;65865;51.698;-0.292;2024-03-23T10:38:42;4.32;;;1.85;;
76903;SDS011;65865;51.698;-0.292;2024-03-23T10:41:08;5.43;;;1.83;;
76903;SDS011;65865;51.698;-0.292;2024-03-23T10:43:35;5.90;;;1.15;;
76903;SDS011;65865;51.698;-0.292;2024-03-23T10:46:02;4.47;;;1.23;;
76903;SDS011;65865;51.698;-0.292;2024-03-23T10:48:28;2.40;;;1.15;;
76903;SDS011;65865;51.698;-0.292;2024-03-23T10:50:55;5.25;;;1.58;;
76903;SDS011;65865;51.698;-0.292;2024-03-23T10:53:25;6.25;;;1.50;;
76903;SDS011;65865;51.698;-0.292;2024-03-23T10:55:52;4.60;;;1.38;;
76903;SDS011;65865;51.698;-0.292;2024-03-23T10:58:19;4.55;;;1.45;;
76903;SDS011;65865;51.698;-0.292;2024-03-23T11:00:49;4.25;;;1.15;;
76903;SDS011;65865;51.698;-0.292;2024-03-23T11:06:02;2.90;;;1.05;;
76903;SDS011;65865;51.698;-0.292;2024-03-23T11:13:47;3.58;;;1.20;;
76903;SDS011;65865;51.698;-0.292;2024-03-23T11:16:14;3.15;;;1.48;;
76903;SDS011;65865;51.698;-0.292;2024-03-23T11:18:43;4.13;;;1.55;;
76903;SDS011;65865;51.698;-0.292;2024-03-23T11:21:10;4.03;;;1.00;;
76903;SDS011;65865;51.698;-0.292;2024-03-23T11:24:12;3.72;;;1.52;;
76903;SDS011;65865;51.698;-0.292;2024-03-23T11:26:41;4.65;;;1.35;;
76903;SDS011;65865;51.698;-0.292;2024-03-23T11:31:37;4.47;;;1.45;;
76903;SDS011;65865;51.698;-0.292;2024-03-23T11:34:04;3.97;;;0.93;;
76903;SDS011;65865;51.698;-0.292;2024-03-23T11:36:30;5.45;;;1.92;;
76903;SDS011;65865;51.698;-0.292;2024-03-23T11:41:27;5.82;;;1.42;;
76903;SDS011;65865;51.698;-0.292;2024-03-23T11:44:13;4.85;;;1.17;;
76903;SDS011;65865;51.698;-0.292;2024-03-23T11:46:46;6.18;;;1.27;;
76903;SDS011;65865;51.698;-0.292;2024-03-23T11:49:23;5.82;;;1.50;;
76903;SDS011;65865;51.698;-0.292;2024-03-23T11:51:50;6.75;;;1.25;;
76903;SDS011;65865;51.698;-0.292;2024-03-23T11:54:20;4.75;;;1.50;;
76903;SDS011;65865;51.698;-0.292;2024-03-23T11:57:04;3.60;;;1.02;;
76903;SDS011;65865;51.698;-0.292;2024-03-23T11:59:42;2.65;;;0.85;;
76903;SDS011;65865;51.698;-0.292;2024-03-23T12:02:10;6.65;;;1.33;;
76903;SDS011;65865;51.698;-0.292;2024-03-23T12:04:37;3.70;;;1.05;;
76903;SDS011;65865;51.698;-0.292;2024-03-23T12:07:17;5.70;;;1.17;;
76903;SDS011;65865;51.698;-0.292;2024-03-23T12:09:46;4.90;;;0.90;;
76903;SDS011;65865;51.698;-0.292;2024-03-23T12:14:45;3.17;;;0.98;;
76903;SDS011;65865;51.698;-0.292;2024-03-23T12:19:37;2.42;;;1.15;;
76903;SDS011;65865;51.698;-0.292;2024-03-23T12:22:07;2.90;;;0.95;;
76903;SDS011;65865;51.698;-0.292;2024-03-23T12:24:33;2.33;;;0.90;;
76903;SDS011;65865;51.698;-0.292;2024-03-23T12:27:03;2.63;;;1.00;;
76903;SDS011;65865;51.698;-0.292;2024-03-23T12:29:32;3.33;;;1.52;;
76903;SDS011;65865;51.698;-0.292;2024-03-23T12:32:03;2.90;;;1.08;;
76903;SDS011;65865;51.698;-0.292;2024-03-23T12:34:35;1.95;;;0.80;;
76903;SDS011;65865;51.698;-0.292;2024-03-23T12:37:01;1.58;;;0.77;;
76903;SDS011;65865;51.698;-0.292;2024-03-23T12:39:27;2.20;;;0.82;;
76903;SDS011;65865;51.698;-0.292;2024-03-23T12:41:54;3.08;;;0.95;;
76903;SDS011;65865;51.698;-0.292;2024-03-23T12:44:30;2.58;;;0.98;;
76903;SDS011;65865;51.698;-0.292;2024-03-23T12:47:02;2.30;;;0.82;;
76903;SDS011;65865;51.698;-0.292;2024-03-23T12:51:57;2.65;;;1.00;;
76903;SDS011;65865;51.698;-0.292;2024-03-23T12:54:26;5.65;;;1.13;;
76903;SDS011;65865;51.698;-0.292;2024-03-23T12:56:56;5.28;;;1.00;;
76903;SDS011;65865;51.698;-0.292;2024-03-23T13:01:54;2.47;;;0.88;;
76903;SDS011;65865;51.698;-0.292;2024-03-23T13:04:21;2.17;;;0.70;;
76903;SDS011;65865;51.698;-0.292;2024-03-23T13:06:53;3.25;;;0.75;;
76903;SDS011;65865;51.698;-0.292;2024-03-23T13:09:21;3.10;;;0.80;;
76903;SDS011;65865;51.698;-0.292;2024-03-23T13:11:48;2.15;;;0.80;;
76903;SDS011;65865;51.698;-0.292;2024-03-23T13:14:16;2.22;;;0.82;;
76903;SDS011;65865;51.698;-0.292;2024-03-23T13:16:44;2.42;;;0.73;;
76903;SDS011;65865;51.698;-0.292;2024-03-23T13:19:17;2.70;;;0.52;;
76903;SDS011;65865;51.698;-0.292;2024-03-23T13:24:13;2.88;;;0.88;;
76903;SDS011;65865;51.698;-0.292;2024-03-23T13:26:40;2.05;;;0.68;;
76903;SDS011;65865;51.698;-0.292;2024-03-23T13:29:08;2.50;;;0.68;;
76903;SDS011;65865;51.698;-0.292;2024-03-23T13:34:01;1.13;;;0.75;;
76903;SDS011;65865;51.698;-0.292;2024-03-23T13:36:28;1.90;;;1.00;;
76903;SDS011;65865;51.698;-0.292;2024-03-23T13:38:55;1.67;;;1.05;;
76903;SDS011;65865;51.698;-0.292;2024-03-23T13:41:28;2.45;;;1.00;;
76903;SDS011;65865;51.698;-0.292;2024-03-23T13:46:24;2.67;;;0.85;;
76903;SDS011;65865;51.698;-0.292;2024-03-23T13:48:50;1.80;;;0.68;;
76903;SDS011;65865;51.698;-0.292;2024-03-23T13:51:22;1.33;;;0.73;;
76903;SDS011;65865;51.698;-0.292;2024-03-23T13:53:56;1.73;;;0.60;;
76903;SDS011;65865;51.698;-0.292;2024-03-23T13:56:26;1.33;;;0.82;;
76903;SDS011;65865;51.698;-0.292;2024-03-23T13:58:54;1.92;;;1.08;;
76903;SDS011;65865;51.698;-0.292;2024-03-23T14:01:20;2.63;;;0.88;;
76903;SDS011;65865;51.698;-0.292;2024-03-23T14:03:47;1.23;;;0.80;;
76903;SDS011;65865;51.698;-0.292;2024-03-23T14:06:15;1.95;;;0.50;;
76903;SDS011;65865;51.698;-0.292;2024-03-23T14:11:14;1.33;;;0.80;;
76903;SDS011;65865;51.698;-0.292;2024-03-23T14:13:46;2.72;;;0.90;;
76903;SDS011;65865;51.698;-0.292;2024-03-23T14:16:19;1.35;;;0.70;;
76903;SDS011;65865;51.698;-0.292;2024-03-23T14:18:49;1.33;;;0.70;;
76903;SDS011;65865;51.698;-0.292;2024-03-23T14:21:16;1.38;;;0.52;;
76903;SDS011;65865;51.698;-0.292;2024-03-23T14:23:42;1.85;;;0.60;;
76903;SDS011;65865;51.698;-0.292;2024-03-23T14:26:10;0.93;;;0.52;;
76903;SDS011;65865;51.698;-0.292;2024-03-23T14:28:37;1.08;;;0.45;;
76903;SDS011;65865;51.698;-0.292;2024-03-23T14:31:03;1.92;;;0.65;;
76903;SDS011;65865;51.698;-0.292;2024-03-23T14:33:41;0.90;;;0.60;;
76903;SDS011;65865;51.698;-0.292;2024-03-23T14:36:15;1.58;;;0.77;;
76903;SDS011;65865;51.698;-0.292;2024-03-23T14:38:47;1.08;;;0.65;;
76903;SDS011;65865;51.698;-0.292;2024-03-23T14:41:15;1.05;;;0.68;;
76903;SDS011;65865;51.698;-0.292;2024-03-23T14:43:42;1.08;;;0.77;;
76903;SDS011;65865;51.698;-0.292;2024-03-23T14:46:10;1.05;;;0.85;;
76903;SDS011;65865;51.698;-0.292;2024-03-23T14:48:37;1.10;;;0.60;;
76903;SDS011;65865;51.698;-0.292;2024-03-23T14:51:03;1.35;;;0.57;;
76903;SDS011;65865;51.698;-0.292;2024-03-23T14:53:31;1.17;;;0.80;;
76903;SDS011;65865;51.698;-0.292;2024-03-23T14:58:43;1.10;;;0.50;;
76903;SDS011;65865;51.698;-0.292;2024-03-23T15:01:10;0.80;;;0.25;;
76903;SDS011;65865;51.698;-0.292;2024-03-23T15:03:38;0.68;;;0.60;;
76903;SDS011;65865;51.698;-0.292;2024-03-23T15:06:07;1.05;;;0.70;;
76903;SDS011;65865;51.698;-0.292;2024-03-23T15:08:41;1.40;;;0.85;;
76903;SDS011;65865;51.698;-0.292;2024-03-23T15:11:11;0.85;;;0.77;;
76903;SDS011;65865;51.698;-0.292;2024-03-23T15:13:42;0.80;;;0.80;;
76903;SDS011;65865;51.698;-0.292;2024-03-23T15:16:16;1.00;;;0.50;;
76903;SDS011;65865;51.698;-0.292;2024-03-23T15:21:13;1.10;;;0.75;;
76903;SDS011;65865;51.698;-0.292;2024-03-23T15:23:46;0.95;;;0.73;;
76903;SDS011;65865;51.698;-0.292;2024-03-23T15:26:15;0.77;;;0.55;;
76903;SDS011;65865;51.698;-0.292;2024-03-23T15:28:41;0.88;;;0.82;;
76903;SDS011;65865;51.698;-0.292;2024-03-23T15:31:23;1.13;;;0.80;;
76903;SDS011;65865;51.698;-0.292;2024-03-23T15:34:00;1.55;;;0.70;;
76903;SDS011;65865;51.698;-0.292;2024-03-23T15:36:27;0.60;;;0.60;;
76903;SDS011;65865;51.698;-0.292;2024-03-23T15:38:53;0.95;;;0.82;;
76903;SDS011;65865;51.698;-0.292;2024-03-23T15:41:33;0.90;;;0.70;;
76903;SDS011;65865;51.698;-0.292;2024-03-23T15:44:06;1.25;;;0.80;;
76903;SDS011;65865;51.698;-0.292;2024-03-23T15:49:02;0.75;;;0.60;;
76903;SDS011;65865;51.698;-0.292;2024-03-23T15:51:31;0.75;;;0.50;;
76903;SDS011;65865;51.698;-0.292;2024-03-23T15:54:00;1.25;;;0.65;;
76903;SDS011;65865;51.698;-0.292;2024-03-23T15:56:31;0.90;;;0.57;;
76903;SDS011;65865;51.698;-0.292;2024-03-23T15:58:57;0.98;;;0.57;;
76903;SDS011;65865;51.698;-0.292;2024-03-23T16:01:31;1.40;;;0.98;;
76903;SDS011;65865;51.698;-0.292;2024-03-23T16:06:29;0.75;;;0.40;;
76903;SDS011;65865;51.698;-0.292;2024-03-23T16:08:57;1.25;;;0.70;;
76903;SDS011;65865;51.698;-0.292;2024-03-23T16:11:25;0.63;;;0.63;;
76903;SDS011;65865;51.698;-0.292;2024-03-23T16:16:20;0.63;;;0.63;;
76903;SDS011;65865;51.698;-0.292;2024-03-23T16:21:26;0.60;;;0.52;;
76903;SDS011;65865;51.698;-0.292;2024-03-23T16:23:54;0.60;;;0.60;;
76903;SDS011;65865;51.698;-0.292;2024-03-23T16:26:22;1.10;;;0.77;;
76903;SDS011;65865;51.698;-0.292;2024-03-23T16:28:48;1.05;;;0.57;;
76903;SDS011;65865;51.698;-0.292;2024-03-23T16:31:14;1.55;;;0.82;;
76903;SDS011;65865;51.698;-0.292;2024-03-23T16:33:47;1.23;;;0.60;;
76903;SDS011;65865;51.698;-0.292;2024-03-23T16:36:13;1.17;;;0.63;;
76903;SDS011;65865;51.698;-0.292;2024-03-23T16:38:43;0.68;;;0.60;;
76903;SDS011;65865;51.698;-0.292;2024-03-23T16:41:12;0.73;;;0.47;;
76903;SDS011;65865;51.698;-0.292;2024-03-23T16:43:41;0.70;;;0.60;;
76903;SDS011;65865;51.698;-0.292;2024-03-23T16:46:11;1.40;;;1.30;;
76903;SDS011;65865;51.698;-0.292;2024-03-23T16:48:42;0.60;;;0.50;;
76903;SDS011;65865;51.698;-0.292;2024-03-23T16:51:10;0.77;;;0.68;;
76903;SDS011;65865;51.698;-0.292;2024-03-23T16:53:36;0.60;;;0.60;;
76903;SDS011;65865;51.698;-0.292;2024-03-23T16:58:40;0.75;;;0.75;;
76903;SDS011;65865;51.698;-0.292;2024-03-23T17:01:10;0.95;;;0.70;;
76903;SDS011;65865;51.698;-0.292;2024-03-23T17:04:02;0.60;;;0.60;;
76903;SDS011;65865;51.698;-0.292;2024-03-23T17:06:38;1.35;;;0.75;;
76903;SDS011;65865;51.698;-0.292;2024-03-23T17:09:04;0.63;;;0.50;;
76903;SDS011;65865;51.698;-0.292;2024-03-23T17:11:49;0.63;;;0.55;;
76903;SDS011;65865;51.698;-0.292;2024-03-23T17:14:16;0.70;;;0.60;;
76903;SDS011;65865;51.698;-0.292;2024-03-23T17:16:43;0.65;;;0.65;;
76903;SDS011;65865;51.698;-0.292;2024-03-23T17:19:11;1.10;;;1.10;;